Time;durP1;ratioP1;P1;durP2;ratioP2;P2;SDS_P1;SDS_P2;PMS_P1;PMS_P2;Temp;Humidity;BMP_temperature;BMP_pressure;BME280_temperature;BME280_humidity;BME280_pressure;Samples;Min_cycle;Max_cycle;Signal;HPM_P1;HPM_P2
2022/11/06 03:00:27;;;;;;;21.85;19.95;;;3.30;99.90;;;;;;5993651;23;21034;31
2022/11/06 03:02:58;;;;;;;22.50;20.27;;;3.30;99.90;;;;;;4877275;29;20526;-81
2022/11/06 03:05:32;;;;;;;22.97;20.33;;;3.30;99.90;;;;;;4883416;29;20415;-82
2022/11/06 03:08:07;;;;;;;22.30;20.40;;;3.20;99.90;;;;;;4881841;29;20197;-81
2022/11/06 03:10:40;;;;;;;19.73;18.17;;;3.20;99.90;;;;;;4874341;29;20201;-80
2022/11/06 03:13:14;;;;;;;21.60;19.60;;;3.10;99.90;;;;;;4864161;29;20993;-81
2022/11/06 03:15:48;;;;;;;21.13;19.50;;;3.20;99.90;;;;;;4867194;29;20208;-81
2022/11/06 03:18:24;;;;;;;19.87;18.30;;;3.30;99.90;;;;;;4864878;29;20209;-81
2022/11/06 03:20:58;;;;;;;22.67;19.10;;;3.20;99.90;;;;;;4868385;29;20481;-81
2022/11/06 03:23:32;;;;;;;21.33;19.60;;;3.30;99.90;;;;;;4865118;29;20443;-82
2022/11/06 03:26:07;;;;;;;20.10;18.50;;;3.30;99.90;;;;;;4863960;29;20213;-81
2022/11/06 03:28:38;;;;;;;21.23;19.43;;;3.20;99.90;;;;;;4879814;29;20206;-81
2022/11/06 03:31:11;;;;;;;20.80;18.70;;;3.10;99.90;;;;;;4864265;29;20229;-81
2022/11/06 03:33:44;;;;;;;20.70;19.17;;;3.10;99.90;;;;;;4858374;29;20466;-81
2022/11/06 03:36:15;;;;;;;18.90;17.53;;;3.00;99.90;;;;;;4864402;29;20218;-81
2022/11/06 03:38:47;;;;;;;21.27;19.37;;;3.00;99.90;;;;;;4864075;29;20217;-81
2022/11/06 03:41:19;;;;;;;18.83;17.43;;;3.00;99.90;;;;;;4863640;29;20783;-82
2022/11/06 03:43:49;;;;;;;19.33;17.93;;;2.90;99.90;;;;;;4865541;29;20213;-81
2022/11/06 03:46:23;;;;;;;19.17;17.77;;;2.90;99.90;;;;;;4863009;29;20624;-81
2022/11/06 03:48:55;;;;;;;20.00;18.40;;;2.90;99.90;;;;;;4865329;29;20808;-81
2022/11/06 03:51:28;;;;;;;18.90;17.50;;;2.90;99.90;;;;;;4863164;29;20230;-81
2022/11/06 03:54:00;;;;;;;19.33;17.80;;;2.90;99.90;;;;;;4864231;29;20209;-81
2022/11/06 03:56:35;;;;;;;18.77;17.33;;;2.80;99.90;;;;;;4864524;29;20273;-81
2022/11/06 03:59:04;;;;;;;19.13;17.60;;;2.70;99.90;;;;;;4864612;29;20665;-81
2022/11/06 04:01:36;;;;;;;19.50;18.00;;;2.70;99.90;;;;;;4856299;29;20237;-82
2022/11/06 04:04:11;;;;;;;18.30;17.00;;;2.70;99.90;;;;;;4863553;29;20538;-80
2022/11/06 04:06:42;;;;;;;18.17;16.77;;;2.60;99.90;;;;;;4863886;29;20226;-82
2022/11/06 04:14:48;;;;;;;18.13;16.87;;;2.40;99.90;;;;;;4865779;29;20191;-82
2022/11/06 04:17:17;;;;;;;18.77;17.47;;;2.40;99.90;;;;;;4864636;29;20726;-81
2022/11/06 04:19:52;;;;;;;17.87;16.67;;;2.40;99.90;;;;;;4858358;29;20235;-81
2022/11/06 04:22:34;;;;;;;17.50;16.30;;;2.30;99.90;;;;;;4864117;29;20737;-83
2022/11/06 04:28:15;;;;;;;18.00;16.70;;;2.10;99.90;;;;;;4865440;29;20525;-80
2022/11/06 04:30:50;;;;;;;18.00;16.70;;;2.10;99.90;;;;;;4863701;29;20438;-85
2022/11/06 04:33:25;;;;;;;18.77;17.40;;;2.20;99.90;;;;;;4860986;29;20197;-84
2022/11/06 04:36:05;;;;;;;18.57;17.17;;;2.20;99.90;;;;;;4862114;29;20204;-82
2022/11/06 04:38:40;;;;;;;18.80;17.40;;;2.20;99.90;;;;;;4859987;29;20462;-79
2022/11/06 04:41:16;;;;;;;19.60;18.20;;;2.40;99.90;;;;;;4863277;29;20465;-81
2022/11/06 04:43:48;;;;;;;18.77;17.47;;;2.40;99.90;;;;;;4860795;29;20445;-82
2022/11/06 04:46:20;;;;;;;19.77;18.13;;;2.40;99.90;;;;;;4862180;29;20976;-81
2022/11/06 04:48:50;;;;;;;18.57;17.27;;;2.40;99.90;;;;;;4866247;29;20470;-81
2022/11/06 04:51:21;;;;;;;19.00;17.70;;;2.40;99.90;;;;;;4862260;29;20240;-81
2022/11/06 04:53:51;;;;;;;19.07;17.67;;;2.40;99.90;;;;;;4862586;29;20590;-81
2022/11/06 04:56:23;;;;;;;19.63;17.90;;;2.40;99.90;;;;;;4866714;29;20820;-81
2022/11/06 04:58:50;;;;;;;19.97;18.37;;;2.40;99.90;;;;;;4862128;29;20466;-82
2022/11/06 05:01:16;;;;;;;19.47;18.13;;;2.50;99.90;;;;;;4863294;29;20500;-82
2022/11/06 05:03:44;;;;;;;18.33;17.03;;;2.40;99.90;;;;;;4862946;29;20213;-81
2022/11/06 05:06:13;;;;;;;17.47;16.17;;;2.40;99.90;;;;;;4862606;29;21027;-82
2022/11/06 05:08:40;;;;;;;17.30;16.10;;;2.40;99.90;;;;;;4862746;29;20453;-82
2022/11/06 05:11:07;;;;;;;17.63;16.43;;;2.30;99.90;;;;;;4863318;29;20997;-82
2022/11/06 05:13:34;;;;;;;17.63;16.40;;;2.20;99.90;;;;;;4869428;29;20479;-82
2022/11/06 05:16:01;;;;;;;16.93;15.73;;;2.20;99.90;;;;;;4869013;29;20462;-81
2022/11/06 05:18:28;;;;;;;17.13;15.97;;;2.20;99.90;;;;;;4861228;29;20485;-81
2022/11/06 05:23:41;;;;;;;18.23;16.57;;;2.10;99.90;;;;;;4867821;29;20442;-80
2022/11/06 05:26:08;;;;;;;18.80;17.33;;;2.10;99.90;;;;;;4869800;29;20439;-80
2022/11/06 05:28:35;;;;;;;18.10;16.87;;;2.20;99.90;;;;;;4868889;29;20943;-80
2022/11/06 05:31:02;;;;;;;18.50;17.20;;;2.20;99.90;;;;;;4867280;29;20480;-81
2022/11/06 05:33:29;;;;;;;17.70;16.50;;;2.20;99.90;;;;;;4869397;29;20446;-82
2022/11/06 05:35:56;;;;;;;18.27;16.97;;;2.30;99.90;;;;;;4868416;29;20928;-81
2022/11/06 05:38:23;;;;;;;17.60;16.50;;;2.20;99.90;;;;;;4866649;29;20489;-82
2022/11/06 05:40:51;;;;;;;16.93;15.83;;;2.10;99.90;;;;;;4866206;29;20485;-81
2022/11/06 05:43:18;;;;;;;17.73;16.43;;;2.10;99.90;;;;;;4866642;29;20461;-81
2022/11/06 05:45:45;;;;;;;17.87;16.67;;;2.10;99.90;;;;;;4867836;29;20446;-81
2022/11/06 05:48:12;;;;;;;17.80;16.60;;;2.10;99.90;;;;;;4866948;29;20458;-81
2022/11/06 05:50:39;;;;;;;19.87;18.37;;;2.20;99.90;;;;;;4867088;29;20457;-81
2022/11/06 05:53:14;;;;;;;18.57;17.27;;;2.20;99.90;;;;;;4871267;29;20452;-81
2022/11/06 05:55:41;;;;;;;18.53;16.83;;;2.30;99.90;;;;;;4866878;29;20884;-81
2022/11/06 05:58:09;;;;;;;18.87;17.37;;;2.20;99.90;;;;;;4866579;29;20482;-81
2022/11/06 06:00:36;;;;;;;24.70;18.17;;;2.30;99.90;;;;;;4866601;29;20450;-82
2022/11/06 06:03:03;;;;;;;19.73;17.97;;;2.30;99.90;;;;;;4867230;29;20511;-83
2022/11/06 06:05:30;;;;;;;19.27;17.77;;;2.40;99.90;;;;;;4867025;29;20445;-83
2022/11/06 06:07:57;;;;;;;21.20;19.13;;;2.30;99.90;;;;;;4866447;29;20464;-80
2022/11/06 06:10:24;;;;;;;20.07;18.63;;;2.40;99.90;;;;;;4866418;29;20523;-84
2022/11/06 06:12:51;;;;;;;19.00;17.70;;;2.50;99.90;;;;;;4864492;29;20217;-80
2022/11/06 06:15:19;;;;;;;19.70;17.90;;;2.60;99.90;;;;;;4863428;29;20912;-80
2022/11/06 06:17:46;;;;;;;19.97;18.47;;;2.60;99.90;;;;;;4864215;29;20842;-82
2022/11/06 06:20:13;;;;;;;18.50;17.17;;;2.60;99.90;;;;;;4865353;29;20812;-80
2022/11/06 06:22:41;;;;;;;18.30;17.10;;;2.60;99.90;;;;;;4865148;29;20491;-79
2022/11/06 06:25:08;;;;;;;18.97;17.57;;;2.60;99.90;;;;;;4860664;29;20458;-81
2022/11/06 06:27:38;;;;;;;19.30;17.93;;;2.60;99.90;;;;;;4862482;29;20458;-81
2022/11/06 06:30:06;;;;;;;19.53;17.90;;;2.60;99.90;;;;;;4863231;29;20438;-81
2022/11/06 06:32:34;;;;;;;18.50;17.13;;;2.70;99.90;;;;;;4862415;29;20496;-80
2022/11/06 06:35:01;;;;;;;17.83;16.63;;;2.60;99.90;;;;;;4863266;29;20443;-81
2022/11/06 06:37:28;;;;;;;17.90;16.53;;;2.60;99.90;;;;;;4864232;29;20494;-80
2022/11/06 06:39:55;;;;;;;18.63;17.33;;;2.50;99.90;;;;;;4863540;29;20859;-80
2022/11/06 06:42:22;;;;;;;18.47;17.27;;;2.50;99.90;;;;;;4861511;29;20515;-81
2022/11/06 06:44:48;;;;;;;18.07;16.87;;;2.60;99.90;;;;;;4862824;29;20442;-81
2022/11/06 06:47:16;;;;;;;18.73;17.20;;;2.70;99.90;;;;;;4861784;29;20198;-81
2022/11/06 06:49:45;;;;;;;23.47;17.77;;;2.60;99.90;;;;;;4865277;29;20209;-80
2022/11/06 06:52:12;;;;;;;18.90;17.30;;;2.70;99.90;;;;;;4862905;29;20996;-81
2022/11/06 06:54:39;;;;;;;19.10;17.13;;;2.70;99.90;;;;;;4862730;29;20995;-80
2022/11/06 06:57:08;;;;;;;17.67;16.57;;;2.70;99.90;;;;;;4861170;29;20511;-81
2022/11/06 06:59:35;;;;;;;18.60;17.10;;;2.70;99.90;;;;;;4862643;29;20202;-80
2022/11/06 07:02:02;;;;;;;19.07;17.60;;;2.90;99.90;;;;;;4861195;29;20504;-80
2022/11/06 07:04:29;;;;;;;18.57;16.93;;;3.00;99.90;;;;;;4861163;29;20206;-81
2022/11/06 07:06:57;;;;;;;18.50;17.27;;;3.00;99.90;;;;;;4862349;29;20454;-81
2022/11/06 07:09:24;;;;;;;16.87;15.87;;;2.90;99.90;;;;;;4860961;29;20542;-81
2022/11/06 07:11:50;;;;;;;17.30;16.17;;;2.70;99.90;;;;;;4862222;29;20226;-81
2022/11/06 07:14:17;;;;;;;23.73;19.33;;;2.70;99.90;;;;;;4862640;29;20478;-81
2022/11/06 07:16:44;;;;;;;18.30;16.73;;;2.60;99.90;;;;;;4861266;29;20254;-80
2022/11/06 07:19:11;;;;;;;19.47;16.97;;;2.60;99.90;;;;;;4862370;29;20482;-80
2022/11/06 07:21:38;;;;;;;16.77;15.67;;;2.60;99.90;;;;;;4860866;29;20479;-80
2022/11/06 07:24:07;;;;;;;17.17;16.07;;;2.60;99.90;;;;;;4860860;29;20473;-81
2022/11/06 07:26:34;;;;;;;16.47;15.47;;;2.50;99.90;;;;;;4860696;29;20459;-80
2022/11/06 07:29:00;;;;;;;16.37;15.27;;;2.60;99.90;;;;;;4861005;29;20841;-81
2022/11/06 07:31:27;;;;;;;17.90;16.30;;;2.60;99.90;;;;;;4861699;29;21028;-81
2022/11/06 07:33:54;;;;;;;18.10;16.80;;;2.70;99.90;;;;;;4860687;29;20466;-81
2022/11/06 07:36:21;;;;;;;18.03;16.83;;;2.70;99.90;;;;;;4862474;29;20475;-83
2022/11/06 07:38:48;;;;;;;17.27;16.13;;;2.80;99.90;;;;;;4859382;29;20483;-83
2022/11/06 07:41:16;;;;;;;17.00;15.90;;;2.90;99.90;;;;;;4860393;29;20488;-80
2022/11/06 07:43:43;;;;;;;18.30;16.80;;;3.00;99.90;;;;;;4860637;29;20451;-82
2022/11/06 07:46:12;;;;;;;17.00;15.90;;;3.20;99.90;;;;;;4861503;29;20693;-83
2022/11/06 07:48:39;;;;;;;16.83;15.73;;;3.20;99.90;;;;;;4861599;29;20198;-83
2022/11/06 07:51:08;;;;;;;17.50;16.30;;;3.30;99.90;;;;;;4859896;29;20237;-82
2022/11/06 07:53:35;;;;;;;17.57;16.27;;;3.30;99.90;;;;;;4860314;29;20217;-85
2022/11/06 07:56:02;;;;;;;18.13;16.83;;;3.30;99.90;;;;;;4861152;29;20671;-80
2022/11/06 07:58:31;;;;;;;16.67;15.57;;;3.30;99.90;;;;;;4864763;29;20218;-81
2022/11/06 08:00:58;;;;;;;16.97;15.87;;;3.40;99.90;;;;;;4864721;29;20229;-81
2022/11/06 08:03:28;;;;;;;16.93;15.83;;;3.60;99.90;;;;;;4865246;29;20213;-79
2022/11/06 08:05:55;;;;;;;16.80;15.60;;;3.60;99.90;;;;;;4864537;29;20306;-80
2022/11/06 08:08:22;;;;;;;16.53;15.50;;;3.70;99.90;;;;;;4862993;29;20727;-82
2022/11/06 08:10:50;;;;;;;17.67;16.47;;;3.90;99.90;;;;;;4861204;29;20230;-80
2022/11/06 08:13:18;;;;;;;16.60;15.60;;;4.10;99.90;;;;;;4862722;29;20679;-80
2022/11/06 08:15:46;;;;;;;16.97;15.87;;;4.20;99.90;;;;;;4865695;29;20206;-80
2022/11/06 08:18:13;;;;;;;17.30;16.10;;;4.30;99.90;;;;;;4864405;29;20226;-81
2022/11/06 08:20:41;;;;;;;16.83;15.73;;;4.20;99.90;;;;;;4862680;29;20198;-81
2022/11/06 08:23:11;;;;;;;16.20;15.10;;;4.30;99.90;;;;;;4862712;29;20266;-81
2022/11/06 08:25:38;;;;;;;16.00;14.90;;;4.50;99.90;;;;;;4861975;29;20210;-81
2022/11/06 08:28:05;;;;;;;16.37;15.17;;;4.60;99.90;;;;;;4863062;29;20210;-80
2022/11/06 08:30:32;;;;;;;16.63;15.47;;;4.60;99.90;;;;;;4863614;29;20205;-79
2022/11/06 08:33:03;;;;;;;17.07;15.80;;;4.70;99.90;;;;;;4861476;29;20634;-82
2022/11/06 08:35:30;;;;;;;16.87;15.57;;;4.70;99.90;;;;;;4862141;29;20397;-81
2022/11/06 08:37:56;;;;;;;16.93;15.77;;;4.70;99.90;;;;;;4861125;29;20233;-80
2022/11/06 08:40:24;;;;;;;16.33;15.23;;;4.80;99.90;;;;;;4860711;29;20206;-81
2022/11/06 08:42:50;;;;;;;16.00;14.90;;;4.90;99.90;;;;;;4861934;29;20198;-81
2022/11/06 08:45:17;;;;;;;16.53;15.33;;;5.00;99.90;;;;;;4861240;29;20206;-80
2022/11/06 08:47:44;;;;;;;16.50;15.40;;;5.10;99.90;;;;;;4860986;29;20671;-82
2022/11/06 08:50:13;;;;;;;16.47;15.27;;;5.10;99.90;;;;;;4858833;29;20215;-80
2022/11/06 08:52:39;;;;;;;16.53;15.33;;;5.20;99.90;;;;;;4861569;29;20222;-83
2022/11/06 08:55:07;;;;;;;17.33;16.07;;;5.20;99.90;;;;;;4861782;29;20257;-86
2022/11/06 08:57:34;;;;;;;18.27;16.87;;;5.40;99.90;;;;;;4859762;29;20210;-84
2022/11/06 09:00:01;;;;;;;17.23;15.97;;;5.60;99.90;;;;;;4859355;29;20213;-83
2022/11/06 09:02:27;;;;;;;16.77;15.60;;;5.70;99.90;;;;;;4860898;29;20238;-78
2022/11/06 09:04:54;;;;;;;17.63;16.30;;;6.00;99.90;;;;;;4861978;29;20198;-79
2022/11/06 09:07:22;;;;;;;17.30;16.10;;;6.10;99.90;;;;;;4860184;29;20213;-83
2022/11/06 09:09:49;;;;;;;18.07;16.60;;;6.20;99.90;;;;;;4860179;29;20199;-81
2022/11/06 09:12:16;;;;;;;17.97;16.67;;;6.40;99.90;;;;;;4858257;29;20235;-82
2022/11/06 09:14:43;;;;;;;16.63;15.53;;;6.50;99.90;;;;;;4860707;29;20270;-82
2022/11/06 09:17:10;;;;;;;17.37;16.03;;;6.60;99.90;;;;;;4861354;29;20581;-82
2022/11/06 09:19:36;;;;;;;18.07;16.77;;;6.70;99.90;;;;;;4859097;29;20251;-82
2022/11/06 09:22:03;;;;;;;19.03;17.63;;;6.60;99.90;;;;;;4860095;29;20223;-81
2022/11/06 09:24:31;;;;;;;18.43;17.13;;;6.80;99.90;;;;;;4860496;29;20199;-82
2022/11/06 09:26:58;;;;;;;19.77;18.37;;;6.80;99.90;;;;;;4860118;29;20226;-82
2022/11/06 09:29:25;;;;;;;18.33;17.03;;;6.90;99.90;;;;;;4860295;29;20576;-82
2022/11/06 09:31:53;;;;;;;18.43;17.07;;;6.90;99.90;;;;;;4859010;29;20649;-82
2022/11/06 09:34:20;;;;;;;17.40;16.13;;;7.00;99.90;;;;;;4860363;29;20210;-82
2022/11/06 09:36:47;;;;;;;9.17;8.27;;;7.20;99.90;;;;;;4861884;29;20268;-83
2022/11/06 09:39:14;;;;;;;10.97;10.07;;;7.40;99.90;;;;;;4861002;29;20563;-82
2022/11/06 09:41:55;;;;;;;12.40;11.43;;;7.50;99.90;;;;;;4860647;29;20225;-81
2022/11/06 09:44:37;;;;;;;13.23;12.10;;;7.50;99.90;;;;;;4858543;29;20225;-82
2022/11/06 09:47:10;;;;;;;11.83;10.73;;;7.60;99.90;;;;;;4860655;29;20209;-82
2022/11/06 09:49:43;;;;;;;16.17;14.97;;;7.70;99.90;;;;;;4860141;29;20225;-83
2022/11/06 09:52:16;;;;;;;11.13;9.13;;;7.60;99.90;;;;;;4859435;29;20229;-82
2022/11/06 09:54:46;;;;;;;10.50;9.60;;;7.60;99.90;;;;;;4851594;29;20213;-81
2022/11/06 09:57:21;;;;;;;8.03;7.23;;;7.60;99.90;;;;;;4853329;29;20204;-81
2022/11/06 09:59:50;;;;;;;8.33;7.53;;;7.60;99.90;;;;;;4855699;29;20245;-80
2022/11/06 10:02:27;;;;;;;7.40;6.47;;;7.60;99.90;;;;;;4853043;29;20730;-81
2022/11/06 10:05:01;;;;;;;8.63;6.07;;;7.60;99.90;;;;;;4868554;29;20206;-82
2022/11/06 10:07:31;;;;;;;12.77;11.77;;;7.50;99.90;;;;;;4863476;29;20210;-82
2022/11/06 10:09:59;;;;;;;7.77;6.83;;;7.40;99.90;;;;;;4853119;29;20202;-82
2022/11/06 10:12:35;;;;;;;8.27;6.50;;;7.20;99.90;;;;;;4874716;29;20233;-82
2022/11/06 10:15:16;;;;;;;11.30;10.40;;;7.10;99.90;;;;;;4862523;29;20202;-82
2022/11/06 10:17:54;;;;;;;15.60;14.50;;;7.00;99.90;;;;;;4867673;29;20632;-81
2022/11/06 10:20:30;;;;;;;14.20;13.20;;;7.00;99.90;;;;;;4869624;29;20285;-81
2022/11/06 10:23:04;;;;;;;15.03;13.90;;;7.10;99.90;;;;;;4859662;29;20235;-81
2022/11/06 10:25:43;;;;;;;14.10;13.20;;;7.20;99.90;;;;;;4878221;29;20692;-80
2022/11/06 10:28:27;;;;;;;13.67;12.73;;;7.20;99.90;;;;;;4864829;29;20212;-82
2022/11/06 10:31:03;;;;;;;13.83;12.93;;;7.20;99.90;;;;;;4861163;29;20250;-82
2022/11/06 10:33:41;;;;;;;14.70;13.60;;;7.20;99.90;;;;;;4867957;29;20274;-82
2022/11/06 10:36:15;;;;;;;14.83;13.73;;;7.10;99.90;;;;;;4858937;29;20205;-81
2022/11/06 10:38:46;;;;;;;14.40;13.30;;;7.10;99.90;;;;;;4861769;29;20272;-80
2022/11/06 10:41:18;;;;;;;14.27;13.27;;;7.00;99.90;;;;;;4862815;29;20582;-81
2022/11/06 10:43:52;;;;;;;15.07;13.97;;;7.10;99.90;;;;;;4861750;29;20682;-81
2022/11/06 10:46:26;;;;;;;14.00;13.10;;;7.10;99.90;;;;;;4861877;29;20247;-82
2022/11/06 10:48:57;;;;;;;14.30;13.40;;;7.20;99.90;;;;;;4861869;29;20585;-81
2022/11/06 10:51:43;;;;;;;14.23;13.23;;;7.40;99.90;;;;;;4861436;29;20231;-81
2022/11/06 10:54:25;;;;;;;14.03;12.93;;;7.40;99.90;;;;;;4861772;29;20591;-81
2022/11/06 10:57:07;;;;;;;13.53;12.60;;;7.50;99.90;;;;;;4858516;29;20201;-82
2022/11/06 10:59:35;;;;;;;14.93;13.90;;;7.60;99.90;;;;;;4862478;29;20221;-81
2022/11/06 11:02:23;;;;;;;14.73;13.73;;;7.70;99.90;;;;;;4860822;29;20782;-82
2022/11/06 11:04:50;;;;;;;15.63;14.53;;;7.80;99.90;;;;;;4861243;29;20208;-82
2022/11/06 11:07:17;;;;;;;12.33;11.33;;;7.80;99.90;;;;;;4860839;29;20202;-82
2022/11/06 11:09:45;;;;;;;17.83;16.47;;;7.70;99.90;;;;;;4860600;29;20663;-83
2022/11/06 11:12:22;;;;;;;14.70;13.70;;;7.70;99.90;;;;;;4861356;29;20230;-82
2022/11/06 11:15:13;;;;;;;12.20;11.20;;;7.60;99.90;;;;;;4861223;29;20649;-82
2022/11/06 11:17:41;;;;;;;13.23;12.23;;;7.60;99.90;;;;;;4855543;29;20209;-80
2022/11/06 11:20:29;;;;;;;11.17;10.27;;;7.70;99.90;;;;;;4861123;29;20303;-81
2022/11/06 11:23:06;;;;;;;13.40;12.30;;;7.70;99.90;;;;;;4857078;29;20240;-83
2022/11/06 11:25:33;;;;;;;8.63;7.73;;;7.80;99.90;;;;;;4874186;29;20233;-82
2022/11/06 11:28:01;;;;;;;8.43;7.63;;;7.90;99.90;;;;;;4861011;29;20706;-82
2022/11/06 11:30:29;;;;;;;9.23;8.33;;;7.80;99.90;;;;;;4861742;29;20671;-79
2022/11/06 11:32:57;;;;;;;13.47;12.43;;;7.80;99.90;;;;;;4858082;29;20221;-79
2022/11/06 11:35:28;;;;;;;12.93;12.00;;;7.90;99.90;;;;;;4860627;29;20566;-80
2022/11/06 11:38:06;;;;;;;12.50;11.43;;;8.00;99.90;;;;;;4862148;29;20205;-82
2022/11/06 11:40:36;;;;;;;13.10;12.07;;;8.10;99.90;;;;;;4853243;29;20232;-83
2022/11/06 11:43:22;;;;;;;13.10;12.10;;;8.20;99.90;;;;;;4860806;29;20198;-84
2022/11/06 11:46:20;;;;;;;15.27;14.17;;;8.20;99.90;;;;;;4859694;29;20209;-82
2022/11/06 11:48:49;;;;;;;15.33;14.17;;;8.30;99.90;;;;;;4870719;29;20205;-82
2022/11/06 11:51:29;;;;;;;13.43;12.43;;;8.40;99.90;;;;;;4869129;29;20230;-82
2022/11/06 11:54:00;;;;;;;9.37;8.57;;;8.30;99.90;;;;;;4861027;29;20206;-81
2022/11/06 11:56:28;;;;;;;12.87;11.93;;;8.40;99.90;;;;;;4857215;29;20260;-84
2022/11/06 11:58:58;;;;;;;11.57;10.63;;;8.50;99.90;;;;;;4877122;29;20729;-84
2022/11/06 12:01:35;;;;;;;9.07;8.37;;;8.40;99.90;;;;;;4866761;29;20244;-84
2022/11/06 12:04:09;;;;;;;9.30;8.60;;;8.50;99.90;;;;;;4863880;29;20240;-84
2022/11/06 12:06:36;;;;;;;9.50;8.70;;;8.60;99.90;;;;;;4863725;29;20209;-83
2022/11/06 12:09:04;;;;;;;15.50;14.37;;;8.60;99.90;;;;;;4859428;29;20556;-83
2022/11/06 12:11:31;;;;;;;14.30;13.30;;;8.70;99.90;;;;;;4860226;29;20236;-84
2022/11/06 12:14:18;;;;;;;16.60;15.50;;;8.70;99.90;;;;;;4861143;29;20200;-85
2022/11/06 12:16:50;;;;;;;14.30;13.33;;;8.80;99.90;;;;;;4857623;29;20695;-83
2022/11/06 12:19:20;;;;;;;14.27;13.27;;;8.90;99.90;;;;;;4857542;29;20233;-82
2022/11/06 12:21:51;;;;;;;13.73;12.83;;;8.90;99.90;;;;;;4858921;29;20229;-81
2022/11/06 12:24:21;;;;;;;13.73;12.83;;;8.90;99.90;;;;;;4860665;29;20205;-82
2022/11/06 12:26:55;;;;;;;14.57;13.57;;;8.90;99.90;;;;;;4860431;29;20210;-81
2022/11/06 12:29:27;;;;;;;14.10;13.20;;;9.00;99.90;;;;;;4860928;29;20581;-81
2022/11/06 12:31:59;;;;;;;13.57;12.67;;;8.90;99.90;;;;;;4859956;29;20233;-82
2022/11/06 12:34:33;;;;;;;14.50;13.60;;;9.00;99.90;;;;;;4860082;29;20238;-81
2022/11/06 12:37:13;;;;;;;14.13;13.13;;;9.10;99.90;;;;;;4859823;29;20213;-81
2022/11/06 12:39:44;;;;;;;15.60;14.50;;;9.10;99.90;;;;;;4857036;29;20226;-83
2022/11/06 12:42:13;;;;;;;15.60;14.40;;;9.10;99.90;;;;;;4859331;29;20225;-83
2022/11/06 12:44:40;;;;;;;15.87;14.77;;;9.20;99.90;;;;;;4859418;29;20957;-85
2022/11/06 12:47:21;;;;;;;15.20;14.10;;;9.20;99.90;;;;;;4858891;29;20209;-82
2022/11/06 12:50:08;;;;;;;15.30;14.20;;;9.20;99.90;;;;;;4860313;29;20568;-84
2022/11/06 12:53:09;;;;;;;14.20;13.20;;;9.20;99.90;;;;;;4860300;29;20637;-82
2022/11/06 12:55:41;;;;;;;14.40;13.40;;;9.40;99.90;;;;;;4860983;29;20218;-82
2022/11/06 12:58:28;;;;;;;14.43;13.43;;;9.40;99.90;;;;;;4859175;29;20213;-86
2022/11/06 13:01:06;;;;;;;13.50;12.60;;;9.50;99.90;;;;;;4859527;29;20252;-84
2022/11/06 13:04:07;;;;;;;14.27;13.27;;;9.60;99.90;;;;;;4875193;29;20206;-79
2022/11/06 13:07:01;;;;;;;14.30;13.30;;;9.70;99.90;;;;;;4871542;29;20209;-83
2022/11/06 13:09:33;;;;;;;13.70;12.80;;;9.80;99.90;;;;;;4856843;29;20198;-83
2022/11/06 13:12:08;;;;;;;14.53;13.53;;;9.90;99.90;;;;;;4859088;29;20236;-83
2022/11/06 13:14:41;;;;;;;14.70;13.70;;;10.00;99.90;;;;;;4862792;29;20674;-84
2022/11/06 13:17:15;;;;;;;14.43;13.43;;;10.10;99.90;;;;;;4859650;29;20667;-84
2022/11/06 13:19:50;;;;;;;15.07;14.07;;;10.10;99.90;;;;;;4858978;29;20220;-85
2022/11/06 13:22:25;;;;;;;14.80;13.80;;;10.10;99.90;;;;;;4859685;29;20226;-86
2022/11/06 13:24:59;;;;;;;15.23;14.13;;;10.10;99.90;;;;;;4855107;29;20696;-86
2022/11/06 13:27:33;;;;;;;13.93;13.03;;;10.20;99.90;;;;;;4864364;29;20589;-84
2022/11/06 13:30:04;;;;;;;14.30;13.30;;;10.20;99.90;;;;;;4860699;29;20198;-85
2022/11/06 13:32:34;;;;;;;14.43;13.43;;;10.30;99.90;;;;;;4851702;29;20229;-85
2022/11/06 13:35:03;;;;;;;14.80;13.70;;;10.30;99.90;;;;;;4867649;29;20698;-84
2022/11/06 13:37:39;;;;;;;13.47;12.57;;;10.30;99.90;;;;;;4863212;29;20213;-85
2022/11/06 13:40:20;;;;;;;13.73;12.83;;;10.30;99.90;;;;;;4861325;29;20329;-85
2022/11/06 13:42:51;;;;;;;14.07;13.17;;;10.40;99.90;;;;;;4863098;29;20228;-85
2022/11/06 13:45:20;;;;;;;13.93;13.03;;;10.30;99.90;;;;;;4857206;29;20277;-85
2022/11/06 13:48:00;;;;;;;14.53;13.57;;;10.40;99.90;;;;;;4865863;29;20221;-86
2022/11/06 13:50:35;;;;;;;15.33;14.27;;;10.40;99.90;;;;;;4877121;29;20220;-84
2022/11/06 13:53:07;;;;;;;15.27;14.13;;;10.50;99.90;;;;;;4862668;29;20209;-85
2022/11/06 13:55:48;;;;;;;16.03;14.93;;;10.50;99.90;;;;;;4848449;29;20201;-83
2022/11/06 13:58:39;;;;;;;15.03;13.93;;;10.50;99.90;;;;;;4860659;29;20634;-85
2022/11/06 14:01:18;;;;;;;16.00;14.80;;;10.50;99.90;;;;;;4862782;29;20229;-85
2022/11/06 14:04:00;;;;;;;14.93;13.90;;;10.40;99.90;;;;;;4864275;29;20221;-85
2022/11/06 14:06:30;;;;;;;15.57;14.47;;;10.30;99.90;;;;;;4867244;29;20221;-87
2022/11/06 14:09:01;;;;;;;8.83;8.03;;;10.30;99.90;;;;;;4864862;29;20221;-85
2022/11/06 14:11:30;;;;;;;15.60;14.50;;;10.30;99.90;;;;;;4859832;29;20658;-86
2022/11/06 14:14:00;;;;;;;9.37;8.47;;;10.30;99.90;;;;;;4862199;29;20221;-84
2022/11/06 14:16:30;;;;;;;7.83;7.03;;;10.20;99.90;;;;;;4863770;29;20214;-84
2022/11/06 14:19:12;;;;;;;7.93;6.37;;;10.20;99.90;;;;;;4862591;29;20220;-84
2022/11/06 14:21:50;;;;;;;13.83;12.83;;;10.20;99.90;;;;;;4862457;29;20232;-85
2022/11/06 14:24:29;;;;;;;14.40;13.40;;;10.20;99.90;;;;;;4862137;29;20273;-84
2022/11/06 14:26:57;;;;;;;14.30;13.30;;;10.20;99.90;;;;;;4863140;29;20671;-84
2022/11/06 14:30:01;;;;;;;14.60;13.63;;;10.20;99.90;;;;;;4860103;29;20198;-81
2022/11/06 14:32:40;;;;;;;15.73;14.53;;;10.10;99.90;;;;;;4863911;29;20227;-83
2022/11/06 14:35:50;;;;;;;15.30;14.20;;;10.10;99.90;;;;;;4858897;29;20199;-83
2022/11/06 14:38:48;;;;;;;14.83;13.73;;;10.00;99.90;;;;;;4862683;29;20191;-83
2022/11/06 14:41:56;;;;;;;14.47;13.47;;;9.90;99.90;;;;;;4862586;29;20217;-84
2022/11/06 14:44:46;;;;;;;14.17;13.17;;;9.90;99.90;;;;;;4862065;29;20201;-81
2022/11/06 14:47:35;;;;;;;14.67;13.43;;;9.80;99.90;;;;;;4863144;29;20266;-83
2022/11/06 14:50:25;;;;;;;14.10;13.10;;;9.80;99.90;;;;;;4864209;29;20201;-83
2022/11/06 14:52:56;;;;;;;15.13;14.03;;;9.70;99.90;;;;;;4856657;29;20702;-83
2022/11/06 14:55:31;;;;;;;13.83;12.83;;;9.60;99.90;;;;;;4860986;29;20708;-82
2022/11/06 14:58:11;;;;;;;14.63;13.53;;;9.50;99.90;;;;;;4861364;29;20212;-82
2022/11/06 15:00:44;;;;;;;14.60;13.50;;;9.40;99.90;;;;;;4860576;29;20642;-82
2022/11/06 15:03:26;;;;;;;14.33;13.37;;;9.30;99.90;;;;;;4860685;29;20213;-82
2022/11/06 15:05:59;;;;;;;13.83;12.83;;;9.30;99.90;;;;;;4861108;29;20734;-81
2022/11/06 15:08:55;;;;;;;14.83;13.73;;;9.30;99.90;;;;;;4862161;29;20202;-82
2022/11/06 15:11:56;;;;;;;14.60;13.60;;;9.30;99.90;;;;;;4860980;29;20624;-86
2022/11/06 15:15:20;;;;;;;15.10;14.00;;;9.30;99.90;;;;;;4863016;29;20213;-85
2022/11/06 15:17:48;;;;;;;14.90;13.80;;;9.30;99.90;;;;;;4859243;29;20278;-84
2022/11/06 15:20:26;;;;;;;13.33;12.23;;;9.20;99.90;;;;;;4861390;29;20233;-83
2022/11/06 15:23:17;;;;;;;14.80;13.80;;;9.10;99.90;;;;;;4860123;29;20206;-84
2022/11/06 15:26:00;;;;;;;16.17;15.00;;;9.10;99.90;;;;;;4856185;29;20206;-83
2022/11/06 15:28:33;;;;;;;13.97;13.00;;;9.00;99.90;;;;;;4860229;29;20212;-83
2022/11/06 15:31:03;;;;;;;14.63;13.53;;;9.00;99.90;;;;;;4859806;29;20318;-83
2022/11/06 15:33:33;;;;;;;14.20;13.10;;;8.90;99.90;;;;;;4857457;29;20217;-82
2022/11/06 15:36:05;;;;;;;13.60;12.60;;;8.80;99.90;;;;;;4862480;29;20261;-83
2022/11/06 15:38:41;;;;;;;14.63;13.57;;;8.80;99.90;;;;;;4875037;29;20201;-82
2022/11/06 15:41:11;;;;;;;13.90;12.90;;;8.70;99.90;;;;;;4867296;29;20288;-83
2022/11/06 15:43:43;;;;;;;13.93;12.93;;;8.60;99.90;;;;;;4859915;29;20676;-82
2022/11/06 15:46:21;;;;;;;13.93;12.93;;;8.50;99.90;;;;;;4857895;29;20208;-82
2022/11/06 15:49:06;;;;;;;14.20;13.10;;;8.50;99.90;;;;;;4861433;29;20201;-85
2022/11/06 15:51:33;;;;;;;13.80;12.80;;;8.40;99.90;;;;;;4861190;29;20310;-85
2022/11/06 15:53:59;;;;;;;14.27;13.27;;;8.40;99.90;;;;;;4860263;29;20201;-85
2022/11/06 15:56:32;;;;;;;14.33;13.27;;;8.40;99.90;;;;;;4860978;29;20202;-85
2022/11/06 15:59:10;;;;;;;15.77;14.43;;;8.30;99.90;;;;;;4860954;29;20201;-85
2022/11/06 16:01:37;;;;;;;14.37;13.33;;;8.30;99.90;;;;;;4860658;29;20226;-84
2022/11/06 16:04:07;;;;;;;14.10;13.10;;;8.30;99.90;;;;;;4859731;29;20216;-85
2022/11/06 16:06:36;;;;;;;14.30;13.30;;;8.30;99.90;;;;;;4871879;29;20209;-85
2022/11/06 16:09:05;;;;;;;13.80;12.80;;;8.20;99.90;;;;;;4872341;29;20247;-80
2022/11/06 16:11:32;;;;;;;13.80;12.80;;;8.20;99.90;;;;;;4875580;29;20308;-84
2022/11/06 16:13:59;;;;;;;14.63;13.57;;;8.10;99.90;;;;;;4862994;29;20216;-82
2022/11/06 16:16:33;;;;;;;14.17;13.17;;;8.10;99.90;;;;;;4859481;29;20224;-82